sensor_id;sensor_type;location;lat;lon;timestamp;pressure;altitude;pressure_sealevel;temperature;humidity
15477;BME280;7840;42.702;23.296;2023-01-29T00:01:17;95162.38;;;-0.71;100.00
15477;BME280;7840;42.702;23.296;2023-01-29T00:03:45;95168.72;;;-0.74;100.00
15477;BME280;7840;42.702;23.296;2023-01-29T00:06:14;95171.16;;;-0.72;100.00
15477;BME280;7840;42.702;23.296;2023-01-29T00:08:42;95178.78;;;-0.71;100.00
15477;BME280;7840;42.702;23.296;2023-01-29T00:11:09;95180.75;;;-0.73;100.00
15477;BME280;7840;42.702;23.296;2023-01-29T00:13:39;95182.72;;;-0.75;100.00
15477;BME280;7840;42.702;23.296;2023-01-29T00:16:21;95179.94;;;-0.73;100.00
15477;BME280;7840;42.702;23.296;2023-01-29T00:18:49;95176.19;;;-0.71;100.00
15477;BME280;7840;42.702;23.296;2023-01-29T00:21:17;95187.19;;;-0.69;100.00
15477;BME280;7840;42.702;23.296;2023-01-29T00:23:46;95186.28;;;-0.76;100.00
15477;BME280;7840;42.702;23.296;2023-01-29T00:26:14;95187.56;;;-0.72;100.00
15477;BME280;7840;42.702;23.296;2023-01-29T00:28:46;95191.72;;;-0.63;100.00
15477;BME280;7840;42.702;23.296;2023-01-29T00:31:15;95193.94;;;-0.74;100.00
15477;BME280;7840;42.702;23.296;2023-01-29T00:33:43;95187.56;;;-0.72;100.00
15477;BME280;7840;42.702;23.296;2023-01-29T00:36:13;95192.78;;;-0.72;100.00
15477;BME280;7840;42.702;23.296;2023-01-29T00:38:41;95193.75;;;-0.73;100.00
15477;BME280;7840;42.702;23.296;2023-01-29T00:41:20;95188.84;;;-0.68;100.00
15477;BME280;7840;42.702;23.296;2023-01-29T00:44:17;95189.28;;;-0.64;100.00
15477;BME280;7840;42.702;23.296;2023-01-29T00:47:03;95186.88;;;-0.66;100.00
15477;BME280;7840;42.702;23.296;2023-01-29T00:49:51;95191.16;;;-0.73;100.00
15477;BME280;7840;42.702;23.296;2023-01-29T00:52:22;95193.13;;;-0.75;100.00
15477;BME280;7840;42.702;23.296;2023-01-29T00:55:17;95189.19;;;-0.71;100.00
15477;BME280;7840;42.702;23.296;2023-01-29T00:57:44;95190.22;;;-0.80;100.00
15477;BME280;7840;42.702;23.296;2023-01-29T01:00:16;95192.66;;;-0.78;100.00
15477;BME280;7840;42.702;23.296;2023-01-29T01:02:44;95188.88;;;-0.76;100.00
15477;BME280;7840;42.702;23.296;2023-01-29T01:05:32;95183.34;;;-0.73;100.00
15477;BME280;7840;42.702;23.296;2023-01-29T01:08:00;95184.78;;;-0.70;100.00
15477;BME280;7840;42.702;23.296;2023-01-29T01:10:31;95179.06;;;-0.66;100.00
15477;BME280;7840;42.702;23.296;2023-01-29T01:13:10;95187.00;;;-0.82;100.00
15477;BME280;7840;42.702;23.296;2023-01-29T01:15:39;95200.28;;;-0.77;100.00
15477;BME280;7840;42.702;23.296;2023-01-29T01:18:07;95185.03;;;-0.80;100.00
15477;BME280;7840;42.702;23.296;2023-01-29T01:20:35;95187.19;;;-0.69;100.00
15477;BME280;7840;42.702;23.296;2023-01-29T01:23:03;95184.34;;;-0.74;100.00
15477;BME280;7840;42.702;23.296;2023-01-29T01:25:31;95183.56;;;-0.83;100.00
15477;BME280;7840;42.702;23.296;2023-01-29T01:27:59;95190.69;;;-0.76;100.00
15477;BME280;7840;42.702;23.296;2023-01-29T01:30:27;95197.72;;;-0.85;100.00
15477;BME280;7840;42.702;23.296;2023-01-29T01:32:56;95182.13;;;-0.85;100.00
15477;BME280;7840;42.702;23.296;2023-01-29T01:35:24;95177.56;;;-0.83;100.00
15477;BME280;7840;42.702;23.296;2023-01-29T01:37:52;95181.81;;;-0.82;100.00
15477;BME280;7840;42.702;23.296;2023-01-29T01:40:20;95193.28;;;-0.76;100.00
15477;BME280;7840;42.702;23.296;2023-01-29T01:42:49;95184.34;;;-0.74;100.00
15477;BME280;7840;42.702;23.296;2023-01-29T01:45:20;95180.75;;;-0.73;100.00
15477;BME280;7840;42.702;23.296;2023-01-29T01:47:51;95191.38;;;-0.83;100.00
15477;BME280;7840;42.702;23.296;2023-01-29T01:50:29;95189.34;;;-0.72;100.00
15477;BME280;7840;42.702;23.296;2023-01-29T01:53:02;95185.94;;;-0.73;100.00
15477;BME280;7840;42.702;23.296;2023-01-29T01:55:32;95194.50;;;-0.87;100.00
15477;BME280;7840;42.702;23.296;2023-01-29T01:58:05;95193.13;;;-0.75;100.00
15477;BME280;7840;42.702;23.296;2023-01-29T02:00:39;95194.75;;;-0.74;100.00
15477;BME280;7840;42.702;23.296;2023-01-29T02:03:21;95196.06;;;-0.78;100.00
15477;BME280;7840;42.702;23.296;2023-01-29T02:06:23;95195.06;;;-0.77;100.00
15477;BME280;7840;42.702;23.296;2023-01-29T02:09:12;95199.72;;;-0.87;100.00
15477;BME280;7840;42.702;23.296;2023-01-29T02:11:57;95187.34;;;-0.85;100.00
15477;BME280;7840;42.702;23.296;2023-01-29T02:14:25;95188.75;;;-0.83;100.00
15477;BME280;7840;42.702;23.296;2023-01-29T02:16:53;95195.13;;;-0.85;100.00
15477;BME280;7840;42.702;23.296;2023-01-29T02:19:32;95194.94;;;-0.84;100.00
15477;BME280;7840;42.702;23.296;2023-01-29T02:22:18;95192.19;;;-0.82;100.00
15477;BME280;7840;42.702;23.296;2023-01-29T02:25:05;95191.03;;;-0.79;100.00
15477;BME280;7840;42.702;23.296;2023-01-29T02:28:05;95193.47;;;-0.78;100.00
15477;BME280;7840;42.702;23.296;2023-01-29T02:30:42;95196.53;;;-0.74;100.00
15477;BME280;7840;42.702;23.296;2023-01-29T02:33:21;95204.44;;;-0.68;100.00
15477;BME280;7840;42.702;23.296;2023-01-29T02:35:58;95204.66;;;-0.77;100.00
15477;BME280;7840;42.702;23.296;2023-01-29T02:38:38;95214.25;;;-0.78;100.00
15477;BME280;7840;42.702;23.296;2023-01-29T02:41:24;95209.88;;;-0.77;100.00
15477;BME280;7840;42.702;23.296;2023-01-29T02:44:12;95210.66;;;-0.77;100.00
15477;BME280;7840;42.702;23.296;2023-01-29T02:47:00;95211.84;;;-0.79;100.00
15477;BME280;7840;42.702;23.296;2023-01-29T02:49:33;95216.81;;;-0.70;100.00
15477;BME280;7840;42.702;23.296;2023-01-29T02:52:06;95213.75;;;-0.73;100.00
15477;BME280;7840;42.702;23.296;2023-01-29T02:54:40;95213.94;;;-0.75;100.00
15477;BME280;7840;42.702;23.296;2023-01-29T02:57:13;95212.75;;;-0.72;100.00
15477;BME280;7840;42.702;23.296;2023-01-29T02:59:49;95209.66;;;-0.68;100.00
15477;BME280;7840;42.702;23.296;2023-01-29T03:02:28;95210.66;;;-0.77;100.00
15477;BME280;7840;42.702;23.296;2023-01-29T03:05:15;95211.38;;;-0.83;100.00
15477;BME280;7840;42.702;23.296;2023-01-29T03:07:49;95206.16;;;-0.83;100.00
15477;BME280;7840;42.702;23.296;2023-01-29T03:10:18;95216.16;;;-0.72;100.00
15477;BME280;7840;42.702;23.296;2023-01-29T03:12:52;95200.28;;;-0.77;100.00
15477;BME280;7840;42.702;23.296;2023-01-29T03:15:27;95206.97;;;-0.83;100.00
15477;BME280;7840;42.702;23.296;2023-01-29T03:18:01;95218.78;;;-0.72;100.00
15477;BME280;7840;42.702;23.296;2023-01-29T03:20:33;95215.88;;;-0.77;100.00
15477;BME280;7840;42.702;23.296;2023-01-29T03:23:24;95208.72;;;-0.75;100.00
15477;BME280;7840;42.702;23.296;2023-01-29T03:26:07;95217.03;;;-0.79;100.00
15477;BME280;7840;42.702;23.296;2023-01-29T03:28:52;95220.81;;;-0.82;100.00
15477;BME280;7840;42.702;23.296;2023-01-29T03:31:39;95216.69;;;-0.76;100.00
15477;BME280;7840;42.702;23.296;2023-01-29T03:34:27;95220.16;;;-0.84;100.00
15477;BME280;7840;42.702;23.296;2023-01-29T03:37:05;95218.53;;;-0.85;100.00
15477;BME280;7840;42.702;23.296;2023-01-29T03:39:39;95215.38;;;-0.72;100.00
15477;BME280;7840;42.702;23.296;2023-01-29T03:42:14;95221.72;;;-0.75;100.00
15477;BME280;7840;42.702;23.296;2023-01-29T03:44:50;95221.88;;;-0.76;100.00
15477;BME280;7840;42.702;23.296;2023-01-29T03:47:23;95217.50;;;-0.76;100.00
15477;BME280;7840;42.702;23.296;2023-01-29T03:49:58;95217.16;;;-0.73;100.00
15477;BME280;7840;42.702;23.296;2023-01-29T03:52:32;95220.88;;;-0.67;100.00
15477;BME280;7840;42.702;23.296;2023-01-29T03:55:09;95217.41;;;-0.60;100.00
15477;BME280;7840;42.702;23.296;2023-01-29T03:57:54;95216.81;;;-0.70;100.00
15477;BME280;7840;42.702;23.296;2023-01-29T04:00:36;95223.00;;;-0.71;100.00
15477;BME280;7840;42.702;23.296;2023-01-29T04:03:18;95228.19;;;-0.71;100.00
15477;BME280;7840;42.702;23.296;2023-01-29T04:05:57;95224.44;;;-0.68;100.00
15477;BME280;7840;42.702;23.296;2023-01-29T04:32:02;95239.00;;;-0.82;100.00
15477;BME280;7840;42.702;23.296;2023-01-29T04:34:46;95241.44;;;-0.80;100.00
15477;BME280;7840;42.702;23.296;2023-01-29T04:37:31;95232.75;;;-0.73;100.00
15477;BME280;7840;42.702;23.296;2023-01-29T04:40:14;95233.44;;;-0.79;100.00
15477;BME280;7840;42.702;23.296;2023-01-29T04:42:54;95242.25;;;-0.80;100.00
15477;BME280;7840;42.702;23.296;2023-01-29T04:45:37;95235.81;;;-0.69;100.00
15477;BME280;7840;42.702;23.296;2023-01-29T04:48:25;95238.66;;;-0.79;100.00
15477;BME280;7840;42.702;23.296;2023-01-29T04:50:58;95244.16;;;-0.74;100.00
15477;BME280;7840;42.702;23.296;2023-01-29T04:53:36;95244.47;;;-0.77;100.00
15477;BME280;7840;42.702;23.296;2023-01-29T04:56:11;95240.25;;;-0.78;100.00
15477;BME280;7840;42.702;23.296;2023-01-29T04:58:46;95239.69;;;-0.88;100.00
15477;BME280;7840;42.702;23.296;2023-01-29T05:01:17;95239.34;;;-0.85;100.00
15477;BME280;7840;42.702;23.296;2023-01-29T05:03:57;95243.97;;;-0.95;100.00
15477;BME280;7840;42.702;23.296;2023-01-29T05:06:32;95247.50;;;-0.96;100.00
15477;BME280;7840;42.702;23.296;2023-01-29T05:09:00;95236.44;;;-0.90;100.00
15477;BME280;7840;42.702;23.296;2023-01-29T05:11:30;95238.41;;;-0.92;100.00
15477;BME280;7840;42.702;23.296;2023-01-29T05:14:17;95245.56;;;-0.94;100.00
15477;BME280;7840;42.702;23.296;2023-01-29T05:16:48;95248.53;;;-1.05;100.00
15477;BME280;7840;42.702;23.296;2023-01-29T05:19:19;95251.78;;;-1.03;100.00
15477;BME280;7840;42.702;23.296;2023-01-29T05:22:05;95250.28;;;-0.98;100.00
15477;BME280;7840;42.702;23.296;2023-01-29T05:24:35;95249.47;;;-0.98;100.00
15477;BME280;7840;42.702;23.296;2023-01-29T05:27:03;95246.56;;;-0.95;100.00
15477;BME280;7840;42.702;23.296;2023-01-29T05:34:55;95255.31;;;-0.96;100.00
15477;BME280;7840;42.702;23.296;2023-01-29T05:37:23;95258.22;;;-0.91;100.00
15477;BME280;7840;42.702;23.296;2023-01-29T05:39:51;95261.31;;;-0.88;100.00
15477;BME280;7840;42.702;23.296;2023-01-29T05:42:18;95257.72;;;-0.87;100.00
15477;BME280;7840;42.702;23.296;2023-01-29T05:44:46;95277.97;;;-0.74;100.00
15477;BME280;7840;42.702;23.296;2023-01-29T05:47:17;95273.69;;;-0.67;100.00
15477;BME280;7840;42.702;23.296;2023-01-29T05:49:50;95268.50;;;-0.67;100.00
15477;BME280;7840;42.702;23.296;2023-01-29T05:52:19;95265.03;;;-0.59;100.00
15477;BME280;7840;42.702;23.296;2023-01-29T05:54:47;95267.44;;;-0.58;100.00
15477;BME280;7840;42.702;23.296;2023-01-29T05:57:16;95272.28;;;-0.77;100.00
15477;BME280;7840;42.702;23.296;2023-01-29T05:59:53;95277.31;;;-0.76;100.00
15477;BME280;7840;42.702;23.296;2023-01-29T06:02:34;95280.03;;;-0.69;100.00
15477;BME280;7840;42.702;23.296;2023-01-29T06:05:01;95275.19;;;-0.72;100.00
15477;BME280;7840;42.702;23.296;2023-01-29T06:07:31;95283.50;;;-0.77;100.00
15477;BME280;7840;42.702;23.296;2023-01-29T06:09:59;95292.09;;;-0.76;100.00
15477;BME280;7840;42.702;23.296;2023-01-29T06:12:30;95290.31;;;-0.76;100.00
15477;BME280;7840;42.702;23.296;2023-01-29T06:15:01;95291.34;;;-0.85;100.00
15477;BME280;7840;42.702;23.296;2023-01-29T06:17:28;95297.16;;;-0.75;100.00
15477;BME280;7840;42.702;23.296;2023-01-29T06:19:56;95302.94;;;-0.65;100.00
15477;BME280;7840;42.702;23.296;2023-01-29T06:22:38;95303.25;;;-0.60;100.00
15477;BME280;7840;42.702;23.296;2023-01-29T06:25:07;95296.13;;;-0.66;100.00
15477;BME280;7840;42.702;23.296;2023-01-29T06:27:35;95311.78;;;-0.74;100.00
15477;BME280;7840;42.702;23.296;2023-01-29T06:30:03;95310.09;;;-0.67;100.00
15477;BME280;7840;42.702;23.296;2023-01-29T06:32:35;95314.94;;;-0.64;100.00
15477;BME280;7840;42.702;23.296;2023-01-29T06:35:03;95314.16;;;-0.64;100.00
15477;BME280;7840;42.702;23.296;2023-01-29T06:37:31;95314.94;;;-0.64;100.00
15477;BME280;7840;42.702;23.296;2023-01-29T06:40:15;95322.44;;;-0.61;100.00
15477;BME280;7840;42.702;23.296;2023-01-29T06:42:47;95330.09;;;-0.67;100.00
15477;BME280;7840;42.702;23.296;2023-01-29T06:45:18;95317.59;;;-0.72;100.00
15477;BME280;7840;42.702;23.296;2023-01-29T06:47:52;95329.19;;;-0.51;100.00
15477;BME280;7840;42.702;23.296;2023-01-29T06:50:33;95318.78;;;-0.51;100.00
15477;BME280;7840;42.702;23.296;2023-01-29T06:53:04;95334.75;;;-0.54;100.00
15477;BME280;7840;42.702;23.296;2023-01-29T06:55:52;95332.44;;;-0.49;100.00
15477;BME280;7840;42.702;23.296;2023-01-29T06:58:21;95336.38;;;-0.53;100.00
15477;BME280;7840;42.702;23.296;2023-01-29T07:00:50;95331.44;;;-0.48;100.00
15477;BME280;7840;42.702;23.296;2023-01-29T07:03:23;95345.63;;;-0.51;100.00
15477;BME280;7840;42.702;23.296;2023-01-29T07:05:51;95336.16;;;-0.44;100.00
15477;BME280;7840;42.702;23.296;2023-01-29T07:08:21;95339.50;;;-0.35;100.00
15477;BME280;7840;42.702;23.296;2023-01-29T07:10:51;95351.88;;;-0.37;100.00
15477;BME280;7840;42.702;23.296;2023-01-29T07:13:19;95352.19;;;-0.32;100.00
15477;BME280;7840;42.702;23.296;2023-01-29T07:15:47;95357.38;;;-0.32;100.00
15477;BME280;7840;42.702;23.296;2023-01-29T07:18:14;95355.22;;;-0.20;100.00
15477;BME280;7840;42.702;23.296;2023-01-29T07:20:42;95359.25;;;-0.18;100.00
15477;BME280;7840;42.702;23.296;2023-01-29T07:23:12;95359.63;;;-0.29;100.00
15477;BME280;7840;42.702;23.296;2023-01-29T07:25:39;95356.41;;;-0.31;100.00
15477;BME280;7840;42.702;23.296;2023-01-29T07:28:08;95367.50;;;-0.14;100.00
15477;BME280;7840;42.702;23.296;2023-01-29T07:30:36;95364.75;;;-0.13;100.00
15477;BME280;7840;42.702;23.296;2023-01-29T07:33:05;95375.59;;;-0.32;100.00
15477;BME280;7840;42.702;23.296;2023-01-29T07:35:36;95367.38;;;-0.21;100.00
15477;BME280;7840;42.702;23.296;2023-01-29T07:38:15;95367.63;;;-0.31;100.00
15477;BME280;7840;42.702;23.296;2023-01-29T07:40:44;95377.22;;;-0.31;100.00
15477;BME280;7840;42.702;23.296;2023-01-29T07:43:13;95374.31;;;-0.36;100.00
15477;BME280;7840;42.702;23.296;2023-01-29T07:45:42;95363.69;;;-0.04;100.00
15477;BME280;7840;42.702;23.296;2023-01-29T07:48:12;95372.31;;;-0.03;100.00
15477;BME280;7840;42.702;23.296;2023-01-29T07:50:40;95367.59;;;0.01;100.00
15477;BME280;7840;42.702;23.296;2023-01-29T07:53:12;95381.53;;;0.08;100.00
15477;BME280;7840;42.702;23.296;2023-01-29T07:55:50;95373.75;;;-0.01;100.00
15477;BME280;7840;42.702;23.296;2023-01-29T07:58:27;95382.91;;;0.18;100.00
15477;BME280;7840;42.702;23.296;2023-01-29T08:00:54;95381.09;;;0.19;100.00
15477;BME280;7840;42.702;23.296;2023-01-29T08:03:22;95393.81;;;0.22;100.00
15477;BME280;7840;42.702;23.296;2023-01-29T08:05:50;95389.34;;;0.08;100.00
15477;BME280;7840;42.702;23.296;2023-01-29T08:08:17;95392.97;;;-0.02;100.00
15477;BME280;7840;42.702;23.296;2023-01-29T08:10:45;95389.81;;;-0.12;100.00
15477;BME280;7840;42.702;23.296;2023-01-29T08:13:16;95399.84;;;-0.09;100.00
15477;BME280;7840;42.702;23.296;2023-01-29T08:15:45;95396.81;;;-0.12;100.00
15477;BME280;7840;42.702;23.296;2023-01-29T08:18:21;95400.53;;;-0.15;100.00
15477;BME280;7840;42.702;23.296;2023-01-29T08:20:48;95409.50;;;-0.17;100.00
15477;BME280;7840;42.702;23.296;2023-01-29T08:23:17;95402.69;;;0.05;100.00
15477;BME280;7840;42.702;23.296;2023-01-29T08:25:45;95408.38;;;0.08;100.00
15477;BME280;7840;42.702;23.296;2023-01-29T08:28:13;95406.34;;;-0.05;100.00
15477;BME280;7840;42.702;23.296;2023-01-29T08:30:57;95405.81;;;-0.23;100.00
15477;BME280;7840;42.702;23.296;2023-01-29T08:33:24;95409.50;;;-0.17;100.00
15477;BME280;7840;42.702;23.296;2023-01-29T08:35:54;95416.13;;;-0.07;100.00
15477;BME280;7840;42.702;23.296;2023-01-29T08:38:21;95414.97;;;-0.04;100.00
15477;BME280;7840;42.702;23.296;2023-01-29T08:40:49;95414.38;;;-0.14;100.00
15477;BME280;7840;42.702;23.296;2023-01-29T08:43:17;95428.50;;;-0.09;100.00
15477;BME280;7840;42.702;23.296;2023-01-29T08:45:45;95424.44;;;-0.11;100.00
15477;BME280;7840;42.702;23.296;2023-01-29T08:48:14;95422.72;;;-0.19;100.00
15477;BME280;7840;42.702;23.296;2023-01-29T08:50:41;95429.53;;;-0.18;100.00
15477;BME280;7840;42.702;23.296;2023-01-29T08:53:09;95430.78;;;-0.06;100.00
15477;BME280;7840;42.702;23.296;2023-01-29T08:55:47;95437.41;;;-0.03;100.00
15477;BME280;7840;42.702;23.296;2023-01-29T08:58:15;95438.03;;;0.07;100.00
15477;BME280;7840;42.702;23.296;2023-01-29T09:00:42;95441.03;;;0.19;100.00
15477;BME280;7840;42.702;23.296;2023-01-29T09:03:10;95449.81;;;0.18;100.00
15477;BME280;7840;42.702;23.296;2023-01-29T09:05:50;95453.34;;;0.25;100.00
15477;BME280;7840;42.702;23.296;2023-01-29T09:08:20;95449.06;;;0.32;100.00
15477;BME280;7840;42.702;23.296;2023-01-29T09:10:49;95442.47;;;0.44;100.00
15477;BME280;7840;42.702;23.296;2023-01-29T09:13:17;95447.69;;;0.21;100.00
15477;BME280;7840;42.702;23.296;2023-01-29T09:15:47;95445.22;;;0.28;100.00
15477;BME280;7840;42.702;23.296;2023-01-29T09:18:19;95433.97;;;0.50;100.00
15477;BME280;7840;42.702;23.296;2023-01-29T09:20:48;95443.00;;;0.63;100.00
15477;BME280;7840;42.702;23.296;2023-01-29T09:23:19;95446.91;;;0.59;100.00
15477;BME280;7840;42.702;23.296;2023-01-29T09:25:46;95446.91;;;0.59;100.00
15477;BME280;7840;42.702;23.296;2023-01-29T09:28:17;95446.59;;;0.16;100.00
15477;BME280;7840;42.702;23.296;2023-01-29T09:30:45;95446.22;;;0.19;100.00
15477;BME280;7840;42.702;23.296;2023-01-29T09:33:17;95444.91;;;0.23;100.00
15477;BME280;7840;42.702;23.296;2023-01-29T09:35:45;95435.94;;;0.03;100.00
15477;BME280;7840;42.702;23.296;2023-01-29T09:38:16;95427.72;;;0.14;100.00
15477;BME280;7840;42.702;23.296;2023-01-29T09:40:54;95428.06;;;0.11;100.00
15477;BME280;7840;42.702;23.296;2023-01-29T09:43:53;95426.06;;;0.13;100.00
15477;BME280;7840;42.702;23.296;2023-01-29T09:46:29;95424.69;;;0.25;100.00
15477;BME280;7840;42.702;23.296;2023-01-29T09:49:02;95415.19;;;0.32;100.00
15477;BME280;7840;42.702;23.296;2023-01-29T09:51:37;95422.72;;;0.27;100.00
15477;BME280;7840;42.702;23.296;2023-01-29T09:54:17;95421.69;;;0.36;100.00
15477;BME280;7840;42.702;23.296;2023-01-29T09:56:49;95433.50;;;0.24;100.00
15477;BME280;7840;42.702;23.296;2023-01-29T09:59:22;95417.50;;;0.27;100.00
15477;BME280;7840;42.702;23.296;2023-01-29T10:01:58;95422.31;;;0.38;100.00
15477;BME280;7840;42.702;23.296;2023-01-29T10:04:44;95425.28;;;0.35;100.00
15477;BME280;7840;42.702;23.296;2023-01-29T10:07:56;95415.56;;;0.29;100.00
15477;BME280;7840;42.702;23.296;2023-01-29T10:10:45;95419.25;;;0.12;100.00
15477;BME280;7840;42.702;23.296;2023-01-29T10:13:20;95415.66;;;0.13;100.00
15477;BME280;7840;42.702;23.296;2023-01-29T10:16:07;95409.53;;;0.06;100.00
15477;BME280;7840;42.702;23.296;2023-01-29T10:19:02;95404.22;;;0.22;100.00
15477;BME280;7840;42.702;23.296;2023-01-29T10:22:01;95405.59;;;0.33;100.00
15477;BME280;7840;42.702;23.296;2023-01-29T10:24:36;95401.56;;;0.30;100.00
15477;BME280;7840;42.702;23.296;2023-01-29T10:27:24;95405.25;;;0.36;100.00
15477;BME280;7840;42.702;23.296;2023-01-29T10:29:55;95401.94;;;0.19;100.00
15477;BME280;7840;42.702;23.296;2023-01-29T10:32:25;95410.13;;;0.16;100.00
15477;BME280;7840;42.702;23.296;2023-01-29T10:35:00;95397.41;;;0.21;100.00
15477;BME280;7840;42.702;23.296;2023-01-29T10:37:35;95396.94;;;-0.06;100.00
15477;BME280;7840;42.702;23.296;2023-01-29T10:40:20;95388.44;;;0.01;100.00
15477;BME280;7840;42.702;23.296;2023-01-29T10:42:58;95396.44;;;-0.09;100.00
15477;BME280;7840;42.702;23.296;2023-01-29T10:45:41;95393.66;;;-0.08;100.00
15477;BME280;7840;42.702;23.296;2023-01-29T10:48:45;95389.63;;;0.13;100.00
15477;BME280;7840;42.702;23.296;2023-01-29T10:51:43;95391.16;;;0.07;100.00
15477;BME280;7840;42.702;23.296;2023-01-29T10:54:33;95390.56;;;-0.03;100.00
15477;BME280;7840;42.702;23.296;2023-01-29T10:57:35;95383.47;;;-0.17;100.00
15477;BME280;7840;42.702;23.296;2023-01-29T11:00:16;95377.34;;;-0.02;100.00
15477;BME280;7840;42.702;23.296;2023-01-29T11:02:46;95380.38;;;-0.13;100.00
15477;BME280;7840;42.702;23.296;2023-01-29T11:05:20;95377.34;;;-0.02;100.00
15477;BME280;7840;42.702;23.296;2023-01-29T11:07:59;95375.22;;;0.02;100.00
15477;BME280;7840;42.702;23.296;2023-01-29T11:10:31;95384.41;;;0.13;100.00
15477;BME280;7840;42.702;23.296;2023-01-29T11:13:00;95370.44;;;0.14;100.00
15477;BME280;7840;42.702;23.296;2023-01-29T11:15:50;95371.56;;;0.11;100.00
15477;BME280;7840;42.702;23.296;2023-01-29T11:18:20;95366.13;;;0.21;100.00
15477;BME280;7840;42.702;23.296;2023-01-29T11:21:01;95370.44;;;0.14;100.00
15477;BME280;7840;42.702;23.296;2023-01-29T11:23:33;95363.56;;;0.13;100.00
15477;BME280;7840;42.702;23.296;2023-01-29T11:26:01;95366.25;;;0.28;100.00
15477;BME280;7840;42.702;23.296;2023-01-29T11:28:41;95362.41;;;0.38;100.00
15477;BME280;7840;42.702;23.296;2023-01-29T11:31:40;95357.66;;;0.19;100.00
15477;BME280;7840;42.702;23.296;2023-01-29T11:34:15;95357.59;;;0.27;100.00
15477;BME280;7840;42.702;23.296;2023-01-29T11:36:44;95355.72;;;0.21;100.00
15477;BME280;7840;42.702;23.296;2023-01-29T11:39:19;95342.63;;;0.29;100.00
15477;BME280;7840;42.702;23.296;2023-01-29T11:41:59;95339.56;;;0.40;100.00
15477;BME280;7840;42.702;23.296;2023-01-29T11:44:33;95330.06;;;0.47;100.00
15477;BME280;7840;42.702;23.296;2023-01-29T11:47:24;95339.69;;;0.47;100.00
15477;BME280;7840;42.702;23.296;2023-01-29T11:49:55;95338.06;;;0.46;100.00
15477;BME280;7840;42.702;23.296;2023-01-29T11:52:26;95334.03;;;0.43;100.00
15477;BME280;7840;42.702;23.296;2023-01-29T11:55:02;95337.81;;;0.56;100.00
15477;BME280;7840;42.702;23.296;2023-01-29T11:58:00;95328.09;;;0.49;100.00
15477;BME280;7840;42.702;23.296;2023-01-29T12:00:35;95336.00;;;0.41;100.00
15477;BME280;7840;42.702;23.296;2023-01-29T12:05:36;95336.94;;;0.78;100.00
15477;BME280;7840;42.702;23.296;2023-01-29T12:08:15;95325.41;;;0.87;100.00
15477;BME280;7840;42.702;23.296;2023-01-29T12:10:44;95322.81;;;0.87;100.00
15477;BME280;7840;42.702;23.296;2023-01-29T12:13:25;95324.16;;;0.68;100.00
15477;BME280;7840;42.702;23.296;2023-01-29T12:16:10;95331.16;;;0.68;100.00
15477;BME280;7840;42.702;23.296;2023-01-29T12:18:45;95326.84;;;0.45;100.00
15477;BME280;7840;42.702;23.296;2023-01-29T12:21:33;95326.59;;;0.55;100.00
15477;BME280;7840;42.702;23.296;2023-01-29T12:24:23;95328.75;;;0.66;100.00
15477;BME280;7840;42.702;23.296;2023-01-29T12:26:58;95319.50;;;0.93;100.00
15477;BME280;7840;42.702;23.296;2023-01-29T12:29:36;95326.31;;;0.94;100.00
15477;BME280;7840;42.702;23.296;2023-01-29T12:32:13;95337.84;;;0.85;100.00
15477;BME280;7840;42.702;23.296;2023-01-29T12:34:47;95331.63;;;0.71;100.00
15477;BME280;7840;42.702;23.296;2023-01-29T12:37:20;95327.50;;;0.62;100.00
15477;BME280;7840;42.702;23.296;2023-01-29T12:39:54;95325.59;;;0.71;100.00
15477;BME280;7840;42.702;23.296;2023-01-29T12:42:24;95329.63;;;0.59;100.00
15477;BME280;7840;42.702;23.296;2023-01-29T12:45:08;95338.94;;;0.76;100.00
15477;BME280;7840;42.702;23.296;2023-01-29T12:47:38;95327.31;;;0.64;100.00
15477;BME280;7840;42.702;23.296;2023-01-29T12:50:21;95326.41;;;0.71;100.00
15477;BME280;7840;42.702;23.296;2023-01-29T12:52:55;95333.72;;;0.76;100.00
15477;BME280;7840;42.702;23.296;2023-01-29T12:55:43;95323.19;;;0.84;100.00
15477;BME280;7840;42.702;23.296;2023-01-29T12:58:26;95331.72;;;0.78;100.00
15477;BME280;7840;42.702;23.296;2023-01-29T13:01:02;95334.31;;;0.63;100.00
15477;BME280;7840;42.702;23.296;2023-01-29T13:03:36;95329.22;;;0.70;100.00
15477;BME280;7840;42.702;23.296;2023-01-29T13:06:27;95331.34;;;0.81;100.00
15477;BME280;7840;42.702;23.296;2023-01-29T13:08:58;95324.53;;;0.80;100.00
15477;BME280;7840;42.702;23.296;2023-01-29T13:11:33;95331.00;;;0.84;100.00
15477;BME280;7840;42.702;23.296;2023-01-29T13:14:18;95332.06;;;0.75;100.00
15477;BME280;7840;42.702;23.296;2023-01-29T13:16:49;95325.41;;;0.87;100.00
15477;BME280;7840;42.702;23.296;2023-01-29T13:19:26;95335.94;;;0.94;100.00
15477;BME280;7840;42.702;23.296;2023-01-29T13:21:59;95333.53;;;0.63;100.00
15477;BME280;7840;42.702;23.296;2023-01-29T13:24:37;95329.81;;;0.57;100.00
15477;BME280;7840;42.702;23.296;2023-01-29T13:27:21;95332.94;;;0.52;100.00
15477;BME280;7840;42.702;23.296;2023-01-29T13:29:50;95334.22;;;0.57;100.00
15477;BME280;7840;42.702;23.296;2023-01-29T13:32:36;95349.28;;;0.46;100.00
15477;BME280;7840;42.702;23.296;2023-01-29T13:35:18;95357.28;;;0.45;100.00
15477;BME280;7840;42.702;23.296;2023-01-29T13:37:55;95345.06;;;0.45;100.00
15477;BME280;7840;42.702;23.296;2023-01-29T13:40:29;95337.97;;;0.39;100.00
15477;BME280;7840;42.702;23.296;2023-01-29T13:43:02;95353.97;;;0.36;100.00
15477;BME280;7840;42.702;23.296;2023-01-29T13:45:35;95362.28;;;0.32;100.00
15477;BME280;7840;42.702;23.296;2023-01-29T13:48:27;95362.19;;;0.25;100.00
15477;BME280;7840;42.702;23.296;2023-01-29T13:51:16;95371.78;;;0.24;100.00
15477;BME280;7840;42.702;23.296;2023-01-29T13:53:57;95355.00;;;0.27;100.00
15477;BME280;7840;42.702;23.296;2023-01-29T13:57:00;95355.34;;;0.24;100.00
15477;BME280;7840;42.702;23.296;2023-01-29T13:59:50;95355.00;;;0.27;100.00
15477;BME280;7840;42.702;23.296;2023-01-29T14:02:24;95359.75;;;0.23;100.00
15477;BME280;7840;42.702;23.296;2023-01-29T14:05:40;95367.97;;;0.35;100.00
15477;BME280;7840;42.702;23.296;2023-01-29T14:08:36;95367.22;;;0.26;100.00